createdAt,value
2022-10-03T00:01:41.936Z,101051.31
2022-10-03T00:04:28.088Z,101055.69
2022-10-03T00:07:06.028Z,100973.28
2022-10-03T00:09:48.757Z,101064.09
2022-10-03T00:12:36.778Z,101062.81
2022-10-03T00:15:12.286Z,101015.19
2022-10-03T00:17:50.398Z,101070.16
2022-10-03T00:20:47.331Z,101066.31
2022-10-03T00:23:22.579Z,101050.97
2022-10-03T00:26:01.404Z,100987.47
2022-10-03T00:28:51.127Z,101025.09
2022-10-03T00:31:26.230Z,101074.97
2022-10-03T00:34:07.072Z,101076.97
2022-10-03T00:36:43.679Z,101061.31
2022-10-03T00:39:32.794Z,101087.88
2022-10-03T00:42:45.313Z,101082.59
2022-10-03T00:45:46.058Z,101082.91
2022-10-03T00:48:46.792Z,101087.78
2022-10-03T00:51:41.136Z,101062.81
2022-10-03T00:54:26.863Z,101074.81
2022-10-03T00:57:09.039Z,101091.09
2022-10-03T00:59:54.756Z,101081.69
2022-10-03T01:02:47.159Z,101098.28
2022-10-03T01:05:28.346Z,101091.28
2022-10-03T01:08:27.981Z,101100.31
2022-10-03T01:11:07.767Z,101105.78
2022-10-03T01:13:47.777Z,101099.78
2022-10-03T01:16:21.708Z,101095.88
2022-10-03T01:19:06.529Z,101105.78
2022-10-03T01:21:44.087Z,101092.13
2022-10-03T01:24:38.296Z,101078.31
2022-10-03T01:27:07.839Z,101071.22
2022-10-03T01:30:13.739Z,101110.34
2022-10-03T01:32:48.781Z,101116.16
2022-10-03T01:35:25.237Z,101114.66
2022-10-03T01:37:59.589Z,101129.94
2022-10-03T01:40:32.906Z,101129.16
2022-10-03T01:43:11.887Z,101117.03
2022-10-03T01:45:49.636Z,101138.44
2022-10-03T01:48:25.900Z,101136.06
2022-10-03T01:51:02.281Z,101146.59
2022-10-03T01:53:41.991Z,101148.13
2022-10-03T01:56:16.895Z,101139.13
2022-10-03T01:58:56.712Z,101154.91
2022-10-03T02:01:32.629Z,101149.06
2022-10-03T02:04:07.755Z,101155.75
2022-10-03T02:06:49.193Z,101167.28
2022-10-03T02:09:27.221Z,101162.91
2022-10-03T02:12:05.526Z,101145.84
2022-10-03T02:14:41.988Z,101147.59
2022-10-03T02:17:23.994Z,101158.13
2022-10-03T02:20:01.553Z,101158.31
2022-10-03T02:22:32.519Z,101172.91
2022-10-03T02:25:16.936Z,101175.38
2022-10-03T02:28:24.658Z,101175.31
2022-10-03T02:31:16.190Z,101180.69
2022-10-03T02:34:03.101Z,101159.69
2022-10-03T02:37:00.881Z,101187.63
2022-10-03T02:40:01.603Z,101186.00
2022-10-03T02:43:16.315Z,101190.69
2022-10-03T02:46:17.568Z,101195.28
2022-10-03T02:49:06.470Z,101195.22
2022-10-03T02:51:55.930Z,101196.59
2022-10-03T02:54:54.842Z,101197.66
2022-10-03T02:58:05.739Z,101197.00
2022-10-03T03:00:50.279Z,101199.44
2022-10-03T03:03:51.669Z,101195.94
2022-10-03T03:07:01.888Z,101190.69
2022-10-03T03:10:02.319Z,101197.84
2022-10-03T03:12:41.379Z,101205.63
2022-10-03T03:15:46.856Z,101192.59
2022-10-03T03:18:24.205Z,101181.13
2022-10-03T03:21:11.410Z,101205.88
2022-10-03T03:23:53.116Z,101155.41
2022-10-03T03:27:03.772Z,101181.97
2022-10-03T03:29:40.350Z,101200.84
2022-10-03T03:32:19.588Z,101202.75
2022-10-03T03:34:57.201Z,101180.28
2022-10-03T03:37:34.754Z,101134.72
2022-10-03T03:40:15.629Z,101201.09
2022-10-03T03:43:22.313Z,101119.47
2022-10-03T03:46:07.650Z,101175.38
2022-10-03T03:49:02.124Z,101212.94
2022-10-03T03:51:39.131Z,101215.53
2022-10-03T03:54:41.368Z,101208.47
2022-10-03T03:57:24.037Z,101214.72
2022-10-03T04:00:15.907Z,101208.66
2022-10-03T04:02:59.622Z,101219.47
2022-10-03T04:05:40.834Z,101223.22
2022-10-03T04:08:27.067Z,101205.34
2022-10-03T04:11:08.159Z,101176.13
2022-10-03T04:13:50.081Z,101224.84
2022-10-03T04:16:50.240Z,101221.72
2022-10-03T04:19:29.920Z,101222.44
2022-10-03T04:22:30.005Z,101221.00
2022-10-03T04:25:18.089Z,101225.00
2022-10-03T04:28:07.385Z,101229.44
2022-10-03T04:30:52.891Z,101234.16
2022-10-03T04:33:33.986Z,101228.09
2022-10-03T04:36:40.875Z,101091.88
2022-10-03T04:39:17.628Z,101224.00
2022-10-03T04:41:53.046Z,101209.84
2022-10-03T04:44:40.496Z,101226.72
2022-10-03T04:47:16.806Z,101224.78
2022-10-03T04:49:53.071Z,101226.66
2022-10-03T04:52:26.439Z,101121.81
2022-10-03T04:55:05.077Z,101210.72
2022-10-03T04:57:43.379Z,101236.72
2022-10-03T05:00:24.423Z,101220.91
2022-10-03T05:02:58.930Z,101174.81
2022-10-03T05:05:43.474Z,101199.03
2022-10-03T05:08:22.431Z,101238.94
2022-10-03T05:10:59.483Z,101238.03
2022-10-03T05:13:42.384Z,101228.22
2022-10-03T05:16:21.955Z,101221.97
2022-10-03T05:18:54.964Z,101233.41
2022-10-03T05:21:35.248Z,101212.69
2022-10-03T05:24:14.182Z,101250.50
2022-10-03T05:26:48.606Z,101260.44
2022-10-03T05:29:22.125Z,101221.66
2022-10-03T05:32:02.286Z,101265.41
2022-10-03T05:34:44.670Z,101234.41
2022-10-03T05:37:33.094Z,101265.53
2022-10-03T05:40:04.778Z,101270.81
2022-10-03T05:42:40.607Z,101231.75
2022-10-03T05:45:24.492Z,101186.00
2022-10-03T05:47:56.594Z,101271.66
2022-10-03T05:50:42.625Z,101271.38
2022-10-03T05:53:30.134Z,101284.75
2022-10-03T05:56:09.197Z,101286.28
2022-10-03T05:58:54.486Z,101291.38
2022-10-03T06:01:59.661Z,101288.72
2022-10-03T06:04:42.920Z,101294.16
2022-10-03T06:07:23.193Z,101297.78
2022-10-03T06:10:20.098Z,101289.66
2022-10-03T06:13:01.200Z,101299.22
2022-10-03T06:15:54.387Z,101300.88
2022-10-03T06:19:01.270Z,101299.03
2022-10-03T06:22:01.761Z,101301.84
2022-10-03T06:24:55.276Z,101308.78
2022-10-03T06:27:52.851Z,101302.47
2022-10-03T06:30:25.267Z,101297.88
2022-10-03T06:33:38.524Z,101298.91
2022-10-03T06:36:26.642Z,101274.16
2022-10-03T06:39:33.093Z,101309.34
2022-10-03T06:42:40.834Z,101308.41
2022-10-03T06:45:42.037Z,101307.50
2022-10-03T06:48:35.070Z,101306.47
2022-10-03T06:51:29.679Z,101261.16
2022-10-03T06:54:31.723Z,101282.44
2022-10-03T06:57:20.871Z,101308.19
2022-10-03T07:00:04.536Z,101317.00
2022-10-03T07:03:04.771Z,101321.56
2022-10-03T07:06:15.395Z,101322.25
2022-10-03T07:09:35.612Z,101325.59
2022-10-03T07:12:40.681Z,101329.34
2022-10-03T07:15:59.394Z,101327.28
2022-10-03T07:18:54.849Z,101326.56
2022-10-03T07:22:02.193Z,101333.50
2022-10-03T07:25:20.476Z,101321.59
2022-10-03T07:28:03.175Z,101333.94
2022-10-03T07:30:51.983Z,101325.38
2022-10-03T07:34:06.696Z,101332.34
2022-10-03T07:37:17.111Z,101335.13
2022-10-03T07:40:08.542Z,101342.97
2022-10-03T07:43:00.322Z,101325.19
2022-10-03T07:45:34.957Z,101348.00
2022-10-03T07:48:27.254Z,101351.47
2022-10-03T07:51:24.431Z,101341.69
2022-10-03T07:54:16.052Z,101363.13
2022-10-03T07:56:58.897Z,101364.75
2022-10-03T07:59:56.720Z,101359.19
2022-10-03T08:02:52.980Z,101376.69
2022-10-03T08:05:31.999Z,101371.97
2022-10-03T08:08:19.549Z,101371.25
2022-10-03T08:11:14.158Z,101377.00
2022-10-03T08:14:01.407Z,101373.22
2022-10-03T08:16:56.888Z,101373.69
2022-10-03T08:19:44.308Z,101386.25
2022-10-03T08:22:21.499Z,101351.09
2022-10-03T08:25:07.311Z,101379.69
2022-10-03T08:27:52.764Z,101377.69
2022-10-03T08:30:25.419Z,101272.47
2022-10-03T08:33:13.549Z,101369.22
2022-10-03T08:36:30.388Z,101388.06
2022-10-03T08:39:14.965Z,101389.53
2022-10-03T08:42:17.697Z,101389.03
2022-10-03T08:45:31.978Z,101390.84
2022-10-03T08:48:36.185Z,101391.50
2022-10-03T08:51:42.221Z,101398.31
2022-10-03T08:54:27.271Z,101401.13
2022-10-03T08:57:17.294Z,101402.66
2022-10-03T09:00:15.544Z,101395.53
2022-10-03T09:03:34.972Z,101401.16
2022-10-03T09:07:05.228Z,101406.16
2022-10-03T09:10:18.121Z,101236.78
2022-10-03T09:13:15.275Z,101394.28
2022-10-03T09:16:20.822Z,101398.53
2022-10-03T09:19:02.741Z,101399.13
2022-10-03T09:22:09.556Z,101333.03
2022-10-03T09:25:24.506Z,101391.03
2022-10-03T09:28:29.190Z,101407.72
2022-10-03T09:31:08.277Z,101412.22
2022-10-03T09:34:00.239Z,101355.19
2022-10-03T09:37:18.460Z,101409.66
2022-10-03T09:40:24.513Z,101406.81
2022-10-03T09:43:19.399Z,101415.47
2022-10-03T09:46:14.516Z,101410.84
2022-10-03T09:49:05.869Z,101407.97
2022-10-03T09:51:45.451Z,101300.25
2022-10-03T09:54:53.797Z,101409.75
2022-10-03T09:57:42.365Z,101406.34
2022-10-03T10:00:18.625Z,101406.59
2022-10-03T10:03:19.083Z,101415.81
2022-10-03T10:06:21.597Z,101408.72
2022-10-03T10:09:50.266Z,101405.88
2022-10-03T10:12:48.362Z,101408.13
2022-10-03T10:15:47.585Z,101400.56
2022-10-03T10:18:40.374Z,101406.03
2022-10-03T10:21:40.569Z,101398.28
2022-10-03T10:24:51.598Z,101383.53
2022-10-03T10:27:55.257Z,101398.34
2022-10-03T10:30:56.428Z,101386.28
2022-10-03T10:34:03.224Z,101406.22
2022-10-03T10:37:12.145Z,101391.16
2022-10-03T10:40:17.623Z,101395.66
2022-10-03T10:43:20.828Z,101391.69
2022-10-03T10:46:19.937Z,101390.78
2022-10-03T10:49:27.478Z,101388.38
2022-10-03T10:52:31.741Z,101388.16
2022-10-03T10:55:44.059Z,101383.25
2022-10-03T10:59:09.074Z,101383.44
2022-10-03T11:02:15.896Z,101376.38
2022-10-03T11:05:29.747Z,101366.88
2022-10-03T11:08:39.997Z,101368.56
2022-10-03T11:11:45.292Z,101375.66
2022-10-03T11:14:59.612Z,101364.69
2022-10-03T11:17:58.820Z,101365.91
2022-10-03T11:21:10.164Z,101358.44
2022-10-03T11:24:13.473Z,101371.34
2022-10-03T11:27:14.536Z,101374.38
2022-10-03T11:30:18.576Z,101370.63
2022-10-03T11:33:18.796Z,101341.06
2022-10-03T11:36:34.372Z,101367.47
2022-10-03T11:39:06.303Z,101369.09
2022-10-03T11:41:47.419Z,101367.06
2022-10-03T11:44:28.593Z,101341.91
2022-10-03T11:47:28.139Z,101369.31
2022-10-03T11:50:14.794Z,101364.38
2022-10-03T11:53:01.795Z,101344.97
2022-10-03T11:55:36.735Z,101364.19
2022-10-03T11:58:22.161Z,101354.63
2022-10-03T12:01:02.322Z,101360.00
2022-10-03T12:03:36.921Z,101373.50
2022-10-03T12:06:28.155Z,101367.16
2022-10-03T12:09:14.158Z,101366.88
2022-10-03T12:11:56.313Z,101367.38
2022-10-03T12:14:29.451Z,101362.34
2022-10-03T12:17:05.770Z,101356.88
2022-10-03T12:19:41.101Z,101359.50
2022-10-03T12:22:20.744Z,101364.00
2022-10-03T12:24:51.028Z,101357.16
2022-10-03T12:27:26.373Z,101365.16
2022-10-03T12:29:58.998Z,101358.13
2022-10-03T12:32:33.576Z,101359.34
2022-10-03T12:35:14.871Z,101365.63
2022-10-03T12:37:50.625Z,101368.19
2022-10-03T12:40:25.029Z,101357.88
2022-10-03T12:43:06.817Z,101365.03
2022-10-03T12:45:40.532Z,101329.41
2022-10-03T12:48:23.742Z,101359.38
2022-10-03T12:50:57.081Z,101352.84
2022-10-03T12:53:41.788Z,101342.78
2022-10-03T12:56:18.834Z,101348.72
2022-10-03T12:59:07.751Z,101361.50
2022-10-03T13:01:55.096Z,101357.59
2022-10-03T13:04:37.193Z,101343.22
2022-10-03T13:07:19.675Z,101347.94
2022-10-03T13:10:07.426Z,101357.25
2022-10-03T13:12:41.747Z,101327.78
2022-10-03T13:15:37.539Z,101357.56
2022-10-03T13:18:30.136Z,101353.19
2022-10-03T13:21:26.655Z,101354.94
2022-10-03T13:24:01.104Z,101331.09
2022-10-03T13:26:43.397Z,101331.03
2022-10-03T13:29:23.801Z,101338.44
2022-10-03T13:32:06.212Z,101337.38
2022-10-03T13:34:57.186Z,101339.31
2022-10-03T13:37:31.520Z,101341.00
2022-10-03T13:40:08.126Z,101296.25
2022-10-03T13:42:41.028Z,101336.75
2022-10-03T13:45:16.251Z,101330.56
2022-10-03T13:47:47.530Z,101340.47
2022-10-03T13:50:22.978Z,101340.19
2022-10-03T13:52:54.771Z,101325.59
2022-10-03T13:55:32.321Z,101333.75
2022-10-03T13:58:33.017Z,101331.28
2022-10-03T14:01:21.672Z,101333.16
2022-10-03T14:04:07.110Z,101314.44
2022-10-03T14:06:40.984Z,101292.59
2022-10-03T14:09:38.980Z,101339.56
2022-10-03T14:12:33.138Z,101339.25
2022-10-03T14:15:27.715Z,101338.94
2022-10-03T14:18:04.246Z,101316.59
2022-10-03T14:20:37.588Z,101285.91
2022-10-03T14:23:21.462Z,101306.97
2022-10-03T14:26:00.290Z,101318.22
2022-10-03T14:28:37.372Z,101344.41
2022-10-03T14:31:14.624Z,101332.41
2022-10-03T14:33:48.156Z,101340.66
2022-10-03T14:36:26.137Z,101340.38
2022-10-03T14:39:07.568Z,101336.53
2022-10-03T14:41:46.443Z,101194.22
2022-10-03T14:44:20.309Z,101326.03
2022-10-03T14:46:55.569Z,101338.47
2022-10-03T14:52:25.918Z,101338.88
2022-10-03T14:54:57.802Z,101338.53
2022-10-03T14:57:43.669Z,101339.78
2022-10-03T15:00:28.419Z,101295.63
2022-10-03T15:02:56.632Z,101332.34
2022-10-03T15:05:35.656Z,101233.44
2022-10-03T15:08:11.643Z,101316.03
2022-10-03T15:10:41.046Z,101319.75
2022-10-03T15:13:10.668Z,101324.34
2022-10-03T15:15:41.760Z,101321.44
2022-10-03T15:18:16.895Z,101317.16
2022-10-03T15:20:47.030Z,101318.91
2022-10-03T15:23:22.336Z,101313.50
2022-10-03T15:25:54.841Z,101302.97
2022-10-03T15:28:27.873Z,101300.56
2022-10-03T15:30:57.915Z,101310.13
2022-10-03T15:33:32.354Z,101306.97
2022-10-03T15:36:09.349Z,101284.56
2022-10-03T15:38:41.282Z,101319.94
2022-10-03T15:41:14.392Z,101326.38
2022-10-03T15:43:53.935Z,101129.38
2022-10-03T15:46:32.894Z,101308.72
2022-10-03T15:49:04.056Z,101313.72
2022-10-03T15:51:36.281Z,101311.34
2022-10-03T15:54:07.730Z,101310.88
2022-10-03T15:56:41.310Z,101301.09
2022-10-03T15:59:20.230Z,101291.66
2022-10-03T16:01:52.886Z,101294.44
2022-10-03T16:04:24.315Z,101297.44
2022-10-03T16:07:03.318Z,101270.78
2022-10-03T16:09:41.214Z,101263.38
2022-10-03T16:12:33.121Z,101213.72
2022-10-03T16:15:17.253Z,101277.50
2022-10-03T16:17:50.704Z,101276.22
2022-10-03T16:20:23.802Z,101270.16
2022-10-03T16:22:54.955Z,101236.03
2022-10-03T16:25:25.420Z,101267.25
2022-10-03T16:28:02.111Z,101259.22
2022-10-03T16:30:35.769Z,101267.72
2022-10-03T16:33:13.778Z,101243.63
2022-10-03T16:35:45.805Z,101253.25
2022-10-03T16:38:22.133Z,101252.78
2022-10-03T16:40:54.817Z,101247.16
2022-10-03T16:43:25.219Z,101259.75
2022-10-03T16:45:54.038Z,101253.69
2022-10-03T16:48:43.306Z,101259.53
2022-10-03T16:51:19.294Z,101257.34
2022-10-03T16:53:50.176Z,101248.25
2022-10-03T16:56:23.267Z,101258.94
2022-10-03T16:58:55.369Z,101267.19
2022-10-03T17:01:31.809Z,101268.41
2022-10-03T17:04:16.902Z,101275.63
2022-10-03T17:06:48.738Z,101260.00
2022-10-03T17:09:26.787Z,101255.13
2022-10-03T17:11:58.682Z,101272.97
2022-10-03T17:14:35.615Z,101245.09
2022-10-03T17:17:09.410Z,101248.81
2022-10-03T17:19:41.490Z,101213.22
2022-10-03T17:22:16.848Z,101254.84
2022-10-03T17:24:49.139Z,101281.34
2022-10-03T17:27:29.466Z,101256.69
2022-10-03T17:30:03.168Z,101283.50
2022-10-03T17:32:37.274Z,101271.34
2022-10-03T17:35:12.892Z,101261.06
2022-10-03T17:38:30.326Z,101277.81
2022-10-03T17:41:14.305Z,101280.09
2022-10-03T17:43:46.624Z,101275.06
2022-10-03T17:46:24.596Z,101285.03
2022-10-03T17:49:00.525Z,101255.16
2022-10-03T17:51:35.775Z,101296.00
2022-10-03T17:54:07.671Z,101285.38
2022-10-03T17:56:36.409Z,101287.25
2022-10-03T17:59:08.175Z,101255.59
2022-10-03T18:01:43.755Z,101280.47
2022-10-03T18:04:19.043Z,101189.75
2022-10-03T18:06:48.418Z,101279.72
2022-10-03T18:09:28.291Z,101284.25
2022-10-03T18:12:05.404Z,101287.25
2022-10-03T18:14:47.714Z,101293.31
2022-10-03T18:17:23.124Z,101254.63
2022-10-03T18:20:03.241Z,101247.75
2022-10-03T18:22:40.579Z,101290.94
2022-10-03T18:25:34.141Z,101293.94
2022-10-03T18:28:13.721Z,101298.53
2022-10-03T18:30:49.999Z,101251.84
2022-10-03T18:33:24.200Z,101285.34
2022-10-03T18:35:53.143Z,101285.13
2022-10-03T18:38:24.623Z,101285.19
2022-10-03T18:40:55.841Z,101279.00
2022-10-03T18:43:28.467Z,101272.94
2022-10-03T18:46:03.662Z,101273.19
2022-10-03T18:48:40.174Z,101275.94
2022-10-03T18:51:15.638Z,101280.47
2022-10-03T18:53:49.741Z,101144.84
2022-10-03T18:56:25.116Z,101286.00
2022-10-03T18:59:08.210Z,101276.19
2022-10-03T19:01:45.354Z,101263.94
2022-10-03T19:04:20.898Z,101272.72
2022-10-03T19:06:53.772Z,101267.75
2022-10-03T19:09:27.227Z,101275.19
2022-10-03T19:12:01.461Z,101233.66
2022-10-03T19:14:34.885Z,101269.16
2022-10-03T19:17:30.903Z,101252.59
2022-10-03T19:20:13.947Z,101261.31
2022-10-03T19:22:46.086Z,101259.78
2022-10-03T19:25:22.855Z,101256.16
2022-10-03T19:27:54.651Z,101272.16
2022-10-03T19:30:24.753Z,101258.88
2022-10-03T19:32:59.238Z,101241.88
2022-10-03T19:35:30.907Z,101214.78
2022-10-03T19:38:04.925Z,101265.81
2022-10-03T19:40:52.270Z,101257.22
2022-10-03T19:43:39.905Z,101261.69
2022-10-03T19:46:22.469Z,101257.16
2022-10-03T19:49:04.592Z,101251.09
2022-10-03T19:51:34.126Z,101252.06
2022-10-03T19:54:03.297Z,101240.63
2022-10-03T19:56:36.514Z,101262.94
2022-10-03T19:59:07.995Z,101234.00
2022-10-03T20:01:44.687Z,101262.31
2022-10-03T20:04:13.796Z,101268.03
2022-10-03T20:06:49.058Z,101258.44
2022-10-03T20:09:23.623Z,101262.16
2022-10-03T20:11:56.464Z,101259.63
2022-10-03T20:14:26.976Z,101197.25
2022-10-03T20:16:58.094Z,101223.00
2022-10-03T20:19:28.312Z,101261.72
2022-10-03T20:22:03.404Z,101272.47
2022-10-03T20:24:35.310Z,101245.19
2022-10-03T20:27:15.509Z,101265.31
2022-10-03T20:29:49.817Z,101248.56
2022-10-03T20:32:19.301Z,101254.91
2022-10-03T20:34:53.805Z,101268.28
2022-10-03T20:37:45.557Z,101224.25
2022-10-03T20:40:30.635Z,101277.25
2022-10-03T20:43:20.997Z,101226.78
2022-10-03T20:45:55.100Z,101269.78
2022-10-03T20:48:29.137Z,101264.00
2022-10-03T20:50:57.505Z,101258.56
2022-10-03T20:53:28.980Z,101240.03
2022-10-03T20:56:01.659Z,101270.78
2022-10-03T20:58:34.210Z,101268.59
2022-10-03T21:01:05.759Z,101248.66
2022-10-03T21:03:42.911Z,101263.59
2022-10-03T21:06:19.168Z,101132.97
2022-10-03T21:08:49.055Z,101271.38
2022-10-03T21:11:22.297Z,101285.72
2022-10-03T21:13:54.912Z,101276.13
2022-10-03T21:16:27.032Z,101210.94
2022-10-03T21:18:59.827Z,101252.44
2022-10-03T21:21:33.685Z,101266.06
2022-10-03T21:24:09.169Z,101268.03
2022-10-03T21:26:44.208Z,101271.66
2022-10-03T21:29:26.790Z,101068.78
2022-10-03T21:32:04.783Z,101256.69
2022-10-03T21:34:41.568Z,101239.13
2022-10-03T21:37:17.414Z,101224.97
2022-10-03T21:39:59.798Z,101253.34
2022-10-03T21:42:32.760Z,101257.75
2022-10-03T21:45:16.627Z,101263.03
2022-10-03T21:47:49.951Z,101220.50
2022-10-03T21:50:22.581Z,101261.75
2022-10-03T21:53:06.744Z,101257.19
2022-10-03T21:55:54.769Z,101256.41
2022-10-03T21:58:40.315Z,101254.72
2022-10-03T22:01:17.224Z,101252.13
2022-10-03T22:03:52.684Z,101177.34
2022-10-03T22:06:25.320Z,101254.22
2022-10-03T22:08:54.609Z,101241.13
2022-10-03T22:11:40.118Z,101242.06
2022-10-03T22:14:19.899Z,101238.59
2022-10-03T22:16:56.754Z,101239.38
2022-10-03T22:19:34.431Z,101236.69
2022-10-03T22:22:16.826Z,101208.50
2022-10-03T22:24:56.428Z,101200.03
2022-10-03T22:27:32.150Z,101220.22
2022-10-03T22:30:05.159Z,101217.50
2022-10-03T22:32:40.903Z,101215.59
2022-10-03T22:35:29.894Z,101205.94
2022-10-03T22:37:58.987Z,101226.31
2022-10-03T22:40:28.215Z,101217.44
2022-10-03T22:43:00.925Z,101211.28
2022-10-03T22:45:32.259Z,101207.81
2022-10-03T22:48:04.175Z,101197.31
2022-10-03T22:50:35.451Z,101127.66
2022-10-03T22:53:04.686Z,101212.38
2022-10-03T22:55:33.047Z,101209.84
2022-10-03T22:58:03.440Z,101201.72
2022-10-03T23:00:35.697Z,101201.69
2022-10-03T23:03:08.526Z,101200.00
2022-10-03T23:05:58.362Z,101202.59
2022-10-03T23:08:40.133Z,101206.94
2022-10-03T23:11:17.394Z,101204.28
2022-10-03T23:13:47.177Z,101208.84
2022-10-03T23:16:32.919Z,101209.84
2022-10-03T23:19:14.470Z,101191.34
2022-10-03T23:21:47.356Z,101064.47
2022-10-03T23:24:21.735Z,101195.88
2022-10-03T23:27:08.244Z,101213.75
2022-10-03T23:29:37.747Z,101106.97
2022-10-03T23:32:06.744Z,101207.53
2022-10-03T23:34:46.279Z,101183.84
2022-10-03T23:37:44.109Z,101148.59
2022-10-03T23:40:21.880Z,101210.41
2022-10-03T23:43:01.876Z,101199.72
2022-10-03T23:45:34.800Z,101198.97
2022-10-03T23:48:07.355Z,101211.47
2022-10-03T23:50:40.682Z,101211.38
2022-10-03T23:53:17.487Z,101191.88
2022-10-03T23:55:45.773Z,101195.38
2022-10-03T23:58:25.858Z,101202.47
